Reading Regional Carl A Spaatz Field
KRDG : now visible

Airfield :











YOU CAN JOIN US ON...

 
LOGIN :

Register | Disclaimer

   EN    FR    IT 

 









Legend :    VFR   Marginal VFR   IFR   Intensive IFR   Very Intensive IFR
Visi :
Ceiling :
>= 8 km
>= 3000ft
5 to 8 km
1000 to 3000 ft
1500m to 5 km
500 to 1000 ft
800 to 1500m
200 to 500 ft
< 800m
< 200 ft
Symbols :   Thunderstorms  Fog  Heavy snow  Heavy precipitations  Wind > 20 kt






- Airport Elevation : 344 ft
- IATA code : RDG


KRDG - Reading Regional Carl A Spaatz Field

CURRENT METAR :
  • 270354Z 25004KT 10SM BKN050 02/M02 A2980 RMK AO2 SLP097 T00221022

EXPIRED METARs :
  • 270254Z 00000KT 10SM CLR 02/M03 A2981 RMK AO2 SLP101 T00221028 58006
  • 270154Z 26004KT 10SM BKN033 03/M02 A2982 RMK AO2 SLP104 T00331022

TAF KRDG
Valid from the 27 at 00:00 until the 28 at 00:00 UTC


262320Z 2700/2724 28007KT P6SM BKN045
FM270300 24004KT P6SM FEW040 FEW100
FM270600 24005KT P6SM BKN100
FM271600 28010G17KT P6SM SCT030 OVC050
FM272200 29007KT P6SM BKN045



MET'MAP, your aeronautical weather chart ! - Copyright ORBIFLY December 2007 - Disclaimer

ORBIFLY MET'MAP TEAM :

Programming & Development : Alexandra Zaïnal
Concept & original design : Baudouin d'Aumeries
Assistance for programming : Marc-Olivier Méhu
Technical & hardware support : Manuel Goepfert

Contact : metmap@orbifly.com




SOURCES & CREDITS :

   NOAA       Earth
Advisory